| time (UTC) | temp C | wind direction | speed KPH | gust KPH | rain 1hr cm | rain 24hr cm | rain mn cm | humidity % | barometer mb |
| 20260906080108 | 18 | 350 | 3.2 | 16.1 | 0.00 | 0.41 | 0.03 | 83 | 1015.4 |
| 20260906074602 | 18 | 124 | 3.2 | 16.1 | 0.00 | 0.41 | 0.03 | 84 | 1015.4 |
| 20260906073058 | 18 | 251 | 0.0 | 14.5 | 0.00 | 0.41 | 0.03 | 84 | 1015.4 |
| 20260906071558 | 18 | 71 | 1.6 | 17.7 | 0.00 | 0.41 | 0.03 | 84 | 1015.4 |
| 20260906070057 | 18 | 104 | 3.2 | 9.7 | 0.00 | 0.41 | 0.03 | 85 | 1015.3 |
| 20260906064556 | 18 | 50 | 0.0 | 16.1 | 0.03 | 0.41 | 0.03 | 86 | 1015.4 |
| 20260906063056 | 18 | 353 | 0.0 | 8.0 | 0.03 | 0.41 | 0.03 | 87 | 1015.3 |
| 20260906061602 | 18 | 5 | 1.6 | 8.0 | 0.03 | 0.41 | 0.03 | 87 | 1015.5 |
| 20260906060052 | 18 | 330 | 1.6 | 9.7 | 0.03 | 0.41 | 0.03 | 87 | 1015.5 |
| 20260906054549 | 18 | 10 | 4.8 | 8.0 | 0.00 | 0.38 | 0.00 | 88 | 1015.3 |
| 20260906053100 | 19 | 68 | 3.2 | 14.5 | 0.00 | 0.38 | 0.00 | 89 | 1015.2 |
| 20260906051545 | 19 | 17 | 1.6 | 9.7 | 0.00 | 0.38 | 0.00 | 90 | 1015.0 |
| 20260906050043 | 20 | 10 | 1.6 | 14.5 | 0.00 | 0.38 | 0.00 | 92 | 1015.0 |
| 20260906044538 | 20 | 14 | 0.0 | 8.0 | 0.00 | 0.38 | 0.00 | 93 | 1015.0 |
| 20260906043038 | 20 | 341 | 1.6 | 6.4 | 0.00 | 0.38 | 0.00 | 93 | 1014.7 |
| 20260906041545 | 21 | 43 | 3.2 | 12.9 | 0.00 | 0.38 | 0.00 | 94 | 1014.8 |
| 20260906040034 | 21 | 340 | 3.2 | 12.9 | 0.00 | 0.38 | 0.00 | 94 | 1014.7 |
| 20260906034535 | 21 | 147 | 1.6 | 9.7 | 0.00 | 0.38 | 0.38 | 93 | 1014.6 |
| 20260906033030 | 21 | 97 | 1.6 | 9.7 | 0.00 | 0.38 | 0.38 | 93 | 1014.6 |
| 20260906031535 | 22 | 88 | 3.2 | 14.5 | 0.00 | 0.38 | 0.38 | 93 | 1014.5 |
| 20260906030035 | 22 | 100 | 3.2 | 9.7 | 0.00 | 0.38 | 0.38 | 94 | 1014.6 |
| 20260906024528 | 22 | 342 | 3.2 | 12.9 | 0.00 | 0.38 | 0.38 | 94 | 1014.7 |
| 20260906023027 | 22 | 79 | 1.6 | 14.5 | 0.00 | 0.38 | 0.38 | 94 | 1014.7 |
| 20260906021527 | 22 | 54 | 1.6 | 9.7 | 0.00 | 0.38 | 0.38 | 94 | 1014.6 |
| 20260906020026 | 22 | 91 | 0.0 | 12.9 | 0.00 | 0.38 | 0.38 | 93 | 1014.4 |
| 20260906014540 | 22 | 5 | 1.6 | 12.9 | 0.00 | 0.38 | 0.38 | 93 | 1014.2 |
| 20260906013027 | 22 | 353 | 6.4 | 17.7 | 0.00 | 0.38 | 0.38 | 92 | 1014.1 |
| 20260906011525 | 23 | 128 | 3.2 | 8.0 | 0.00 | 0.38 | 0.38 | 92 | 1013.9 |
| 20260906010053 | 23 | 72 | 1.6 | 6.4 | 0.00 | 0.38 | 0.38 | 93 | 1013.9 |
| 20260906004524 | 23 | 349 | 1.6 | 12.9 | 0.00 | 0.38 | 0.38 | 93 | 1013.7 |
| 20260906003024 | 23 | 39 | 4.8 | 9.7 | 0.00 | 0.38 | 0.38 | 94 | 1013.2 |
| 20260906001533 | 24 | 36 | 1.6 | 11.3 | 0.00 | 0.38 | 0.38 | 94 | 1013.2 |
| 20260906000023 | 23 | 343 | 0.0 | 6.4 | 0.00 | 0.38 | 0.38 | 94 | 1013.2 |
| 20260905234522 | 23 | 303 | 0.0 | 0.0 | 0.00 | 0.38 | 0.38 | 92 | 1013.2 |
| 20260905233021 | 23 | 303 | 0.0 | 3.2 | 0.00 | 0.38 | 0.38 | 92 | 1013.0 |
| 20260905231535 | 23 | 301 | 4.8 | 6.4 | 0.00 | 0.38 | 0.38 | 93 | 1013.0 |
| 20260905230020 | 24 | 82 | 0.0 | 4.8 | 0.00 | 0.38 | 0.38 | 94 | 1013.3 |
| 20260905224520 | 24 | 84 | 0.0 | 3.2 | 0.00 | 0.38 | 0.38 | 94 | 1013.3 |
| 20260905223029 | 24 | 84 | 1.6 | 4.8 | 0.00 | 0.38 | 0.38 | 93 | 1013.1 |
| 20260905221517 | 25 | 79 | 1.6 | 3.2 | 0.03 | 0.38 | 0.38 | 90 | 1012.8 |
| 20260905220024 | 25 | 283 | 3.2 | 17.7 | 0.33 | 0.38 | 0.38 | 88 | 1012.9 |
| 20260905214518 | 25 | 214 | 1.6 | 6.4 | 0.33 | 0.38 | 0.38 | 91 | 1012.6 |
| 20260905213020 | 26 | 76 | 0.0 | 0.0 | 0.33 | 0.38 | 0.38 | 86 | 1012.5 |
| 20260905211534 | 29 | 43 | 9.7 | 20.9 | 0.28 | 0.33 | 0.33 | 72 | 1012.3 |
| 20260905210013 | 31 | 285 | 8.0 | 16.1 | 0.00 | 0.05 | 0.05 | 67 | 1012.3 |
| 20260905204518 | 31 | 314 | 8.0 | 16.1 | 0.00 | 0.05 | 0.05 | 69 | 1012.6 |
| 20260905203009 | 30 | 278 | 4.8 | 14.5 | 0.00 | 0.05 | 0.05 | 69 | 1012.7 |
| 20260905201508 | 30 | 303 | 8.0 | 17.7 | 0.00 | 0.05 | 0.05 | 69 | 1012.9 |
| 20260905200005 | 30 | 321 | 9.7 | 14.5 | 0.00 | 0.05 | 0.05 | 67 | 1013.0 |
| 20260905194505 | 31 | 273 | 3.2 | 12.9 | 0.00 | 0.05 | 0.05 | 67 | 1013.2 |
| 20260905193004 | 30 | 304 | 9.7 | 16.1 | 0.00 | 0.05 | 0.05 | 67 | 1013.4 |
| 20260905191502 | 30 | 291 | 8.0 | 16.1 | 0.00 | 0.05 | 0.05 | 67 | 1013.5 |
| 20260905190002 | 30 | 262 | 9.7 | 17.7 | 0.00 | 0.05 | 0.05 | 65 | 1013.6 |
| 20260905184611 | 30 | 316 | 6.4 | 17.7 | 0.00 | 0.05 | 0.05 | 68 | 1013.8 |
| 20260905183111 | 30 | 312 | 12.9 | 17.7 | 0.00 | 0.05 | 0.05 | 67 | 1014.0 |
| 20260905181555 | 29 | 267 | 8.0 | 16.1 | 0.00 | 0.05 | 0.05 | 70 | 1014.1 |
| 20260905180056 | 28 | 305 | 6.4 | 17.7 | 0.00 | 0.05 | 0.05 | 70 | 1014.1 |
| 20260905174551 | 28 | 268 | 11.3 | 17.7 | 0.00 | 0.05 | 0.05 | 71 | 1014.1 |
| 20260905173046 | 27 | 293 | 8.0 | 17.7 | 0.00 | 0.05 | 0.05 | 79 | 1014.2 |
| 20260905171545 | 27 | 289 | 4.8 | 14.5 | 0.03 | 0.05 | 0.05 | 82 | 1014.3 |
| 20260905170047 | 26 | 242 | 1.6 | 4.8 | 0.03 | 0.05 | 0.05 | 84 | 1014.4 |
| 20260905164539 | 25 | 311 | 0.0 | 0.0 | 0.03 | 0.05 | 0.05 | 88 | 1014.6 |
| 20260905163041 | 24 | 314 | 0.0 | 11.3 | 0.03 | 0.05 | 0.05 | 85 | 1014.7 |
| 20260905161538 | 25 | 278 | 6.4 | 17.7 | 0.00 | 0.03 | 0.03 | 81 | 1015.0 |
| 20260905160038 | 26 | 253 | 4.8 | 11.3 | 0.00 | 0.03 | 0.03 | 76 | 1014.9 |
| 20260905154538 | 27 | 283 | 8.0 | 16.1 | 0.00 | 0.03 | 0.03 | 75 | 1014.8 |
| 20260905153031 | 26 | 211 | 6.4 | 16.1 | 0.00 | 0.03 | 0.03 | 78 | 1014.8 |
| 20260905151535 | 25 | 220 | 3.2 | 14.5 | 0.03 | 0.03 | 0.03 | 79 | 1014.8 |
| 20260905150025 | 25 | 202 | 6.4 | 12.9 | 0.03 | 0.03 | 0.03 | 81 | 1014.5 |
| 20260905144528 | 24 | 198 | 9.7 | 17.7 | 0.03 | 0.03 | 0.03 | 81 | 1014.5 |
| 20260905143016 | 24 | 174 | 11.3 | 17.7 | 0.03 | 0.03 | 0.03 | 83 | 1014.2 |
| 20260905141512 | 23 | 185 | 9.7 | 16.1 | 0.00 | 0.00 | 0.00 | 84 | 1014.7 |
| 20260905140007 | 23 | 168 | 6.4 | 12.9 | 0.00 | 0.00 | 0.00 | 85 | 1014.7 |
| 20260905134503 | 22 | 182 | 4.8 | 14.5 | 0.00 | 0.00 | 0.00 | 87 | 1014.7 |
| 20260905133059 | 22 | 189 | 0.0 | 16.1 | 0.00 | 0.00 | 0.00 | 88 | 1014.9 |
| 20260905131558 | 21 | 194 | 1.6 | 14.5 | 0.00 | 0.00 | 0.00 | 90 | 1015.2 |
| 20260905130052 | 21 | 136 | 4.8 | 11.3 | 0.00 | 0.00 | 0.00 | 92 | 1015.3 |
| 20260905124549 | 20 | 141 | 0.0 | 6.4 | 0.00 | 0.00 | 0.00 | 93 | 1015.5 |
| 20260905123045 | 20 | 163 | 3.2 | 8.0 | 0.00 | 0.00 | 0.00 | 91 | 1015.5 |
| 20260905121546 | 20 | 132 | 6.4 | 11.3 | 0.00 | 0.00 | 0.00 | 91 | 1015.4 |
| 20260905120044 | 20 | 109 | 1.6 | 9.7 | 0.00 | 0.00 | 0.00 | 91 | 1015.2 |
| 20260905114546 | 20 | 114 | 6.4 | 16.1 | 0.00 | 0.00 | 0.00 | 90 | 1014.8 |
| 20260905113043 | 20 | 108 | 8.0 | 17.7 | 0.00 | 0.00 | 0.00 | 89 | 1015.1 |
| 20260905111542 | 20 | 83 | 4.8 | 14.5 | 0.00 | 0.00 | 0.00 | 89 | 1015.4 |
| 20260905110045 | 20 | 98 | 4.8 | 14.5 | 0.00 | 0.00 | 0.00 | 89 | 1015.6 |
| 20260905104538 | 20 | 202 | 3.2 | 14.5 | 0.00 | 0.00 | 0.00 | 91 | 1016.2 |
| 20260905103039 | 20 | 295 | 6.4 | 11.3 | 0.00 | 0.00 | 0.00 | 92 | 1016.1 |
| 20260905101538 | 20 | 346 | 1.6 | 16.1 | 0.00 | 0.00 | 0.00 | 92 | 1015.9 |
| 20260905100041 | 20 | 115 | 6.4 | 17.7 | 0.00 | 0.00 | 0.00 | 91 | 1015.8 |
| 20260905094533 | 20 | 140 | 4.8 | 29.0 | 0.00 | 0.00 | 0.00 | 89 | 1016.1 |
| 20260905093033 | 20 | 132 | 8.0 | 19.3 | 0.00 | 0.00 | 0.00 | 87 | 1016.2 |
| 20260905091534 | 21 | 307 | 9.7 | 27.4 | 0.00 | 0.00 | 0.00 | 88 | 1016.2 |
| 20260905090027 | 21 | 10 | 16.1 | 43.5 | 0.00 | 0.00 | 0.00 | 96 | 1015.9 |
| 20260905084524 | 21 | 172 | 0.0 | 0.0 | 0.00 | 0.00 | 0.00 | 97 | 1014.6 |
| 20260905083023 | 20 | 172 | 0.0 | 0.0 | 0.00 | 0.00 | 0.00 | 97 | 1014.4 |
| 20260905081522 | 20 | 172 | 0.0 | 0.0 | 0.00 | 0.00 | 0.00 | 97 | 1014.2 |